Weather observations for the past three days for
Richmond Municipal Airport
Imperial (Metric)
Date Time (edt) Wind (mph) Vis. (mi.) Weather Sky Cond. Temperature (ºF) Relative Humidity Wind Chill (°F) Heat Index (°F) Pressure Precipitation (in)
Air Dwpt 6 hour altimeter (in) sea level (mb) 1 hr 3 hr 6 hr
Max. Min.
31 20:35 Calm 10.00 Fair CLR 77 71.6 83% 78 30.08 0.0
31 20:15 S 3 10.00 Fair CLR 78.8 71.6 79% 82 30.07 0.0
31 19:55 SW 5 10.00 Fair CLR 78.8 71.6 79% 82 30.06 0.0
31 19:35 SW 5 10.00 Fair CLR 80.6 73.4 79% 85 30.06 0.0
31 19:15 SW 6 10.00 Fair CLR 82.4 71.6 70% 87 30.06 0.0
31 18:55 SW 8 10.00 Fair CLR 82.4 71.6 70% 87 30.05 0.0
31 18:35 SW 10 10.00 Fair CLR 84.2 71.6 66% 90 30.06 0.0
31 18:15 SW 12 10.00 Fair CLR 86 69.8 59% 91 30.06 0.0
31 17:55 SW 13 10.00 Fair CLR 86 69.8 59% 91 30.06 0.0
31 17:35 SW 13 10.00 Fair CLR 86 69.8 59% 91 30.07 0.0
31 17:15 SW 12 10.00 Fair CLR 86 69.8 59% 91 30.08 0.0
31 16:55 SW 8 10.00 Fair CLR 86 71.6 62% 92 30.08 0.0
31 16:35 SW 8 10.00 Fair CLR 86 71.6 62% 92 30.09 0.0
31 16:15 SW 10 10.00 Partly Cloudy SCT070 87.8 69.8 55% 93 30.1 0.0
31 15:55 SW 13 10.00 Partly Cloudy SCT046 SCT049 SCT070 87.8 71.6 59% 94 30.11 0.0
31 15:35 SW 12 10.00 Fair CLR 87.8 71.6 59% 94 30.12 0.0
31 15:15 W 8 10.00 Partly Cloudy SCT045 SCT050 87.8 71.6 59% 94 30.12 0.0
31 14:55 W 12 G 17 10.00 Partly Cloudy SCT045 SCT055 86 71.6 62% 92 30.12 0.0
31 14:35 W 9 10.00 Partly Cloudy SCT043 87.8 69.8 55% 93 30.13 0.0
31 14:15 W 12 10.00 Fair CLR 86 71.6 62% 92 30.13 0.0
31 13:55 W 14 10.00 Partly Cloudy SCT037 SCT044 SCT050 86 71.6 62% 92 30.13 0.0
31 13:35 W 13 G 17 10.00 Partly Cloudy SCT037 SCT043 SCT050 86 71.6 62% 92 30.13 0.0
31 13:15 SW 10 10.00 Fair CLR 84.2 75.2 74% 92 30.14 0.0
31 12:55 W 10 G 16 10.00 Fair CLR 84.2 73.4 70% 91 30.14 0.0
31 12:35 SW 8 10.00 Fair CLR 82.4 73.4 74% 88 30.15 0.0
31 12:15 SW 8 10.00 Fair CLR 80.6 73.4 79% 85 30.14 0.0
31 11:55 SW 9 10.00 Fair CLR 80.6 73.4 79% 85 30.14 0.0
31 11:35 SW 8 10.00 Fair CLR 80.6 71.6 74% 85 30.14 0.0
31 10:55 SW 12 10.00 Fair CLR 80.6 71.6 74% 85 30.14 0.0
31 10:35 SW 10 10.00 Fair CLR 78.8 71.6 79% 82 30.13 0.0
31 10:15 SW 7 10.00 Partly Cloudy SCT048 78.8 71.6 79% 82 30.13 0.0
31 09:55 SW 6 10.00 Partly Cloudy SCT048 75.2 69.8 83% 75 30.13 0.0
31 09:35 Calm 10.00 Fair CLR 73.4 69.8 89% 30.13 0.0
31 09:15 Calm 10.00 Fair CLR 71.6 69.8 94% 30.13 0.0
31 08:55 Calm 10.00 Fair CLR 71.6 68 88% 30.13 0.0
31 08:35 Calm 10.00 Fair CLR 69.8 68 94% 30.12 0.0
31 08:15 Calm 10.00 Fair CLR 68 68 100% 30.12 0.0
31 07:55 SE 3 10.00 Fair CLR 68 66.2 94% 30.12 0.0
31 07:35 SE 3 10.00 Fair CLR 68 66.2 94% 30.12 0.0
31 07:15 Calm 10.00 Fair CLR 68 66.2 94% 30.11 0.0
31 06:55 S 3 10.00 Fair CLR 68 68 100% 30.11 0.0
31 06:35 S 5 10.00 Fair CLR 69.8 68 94% 30.1 0.0
31 06:15 S 5 10.00 Fair CLR 68 68 100% 30.1 0.0
31 05:55 S 3 10.00 Fair CLR 68 66.2 94% 30.1 0.0
31 05:35 S 3 10.00 Fair CLR 68 66.2 94% 30.1 0.0
31 05:15 Calm 10.00 Fair CLR 68 68 100% 30.1 0.0
31 04:55 Calm 10.00 Fair CLR 68 68 100% 30.1 0.0
31 04:35 SE 3 10.00 Fair CLR 68 68 100% 30.1 0.0
31 04:15 Calm 10.00 Fair CLR 68 68 100% 30.09 0.0
31 03:55 SE 3 10.00 Fair CLR 69.8 66.2 88% 30.09 0.0
31 03:35 SE 6 10.00 Fair CLR 68 66.2 94% 30.08 0.0
31 03:15 SE 3 10.00 Fair CLR 68 66.2 94% 30.09 0.0
31 02:55 SE 5 10.00 Fair CLR 68 66.2 94% 30.09 0.0
31 02:35 SE 5 10.00 Fair CLR 68 66.2 94% 30.1 0.0
31 02:15 SE 5 10.00 Fair CLR 68 66.2 94% 30.11 0.0
31 01:55 SE 5 10.00 Fair CLR 69.8 68 94% 30.11 0.0
31 01:35 SE 6 10.00 Fair CLR 68 68 100% 30.11 0.0
31 01:15 SE 5 10.00 Fair CLR 69.8 68 94% 30.11 0.0
31 00:55 SE 6 10.00 Fair CLR 68 66.2 94% 30.11 0.0
31 00:35 SE 6 10.00 Fair CLR 68 66.2 94% 30.11 0.0
31 00:15 SE 6 10.00 Fair CLR 68 68 100% 30.11 0.0
30 23:55 SE 3 10.00 Fair CLR 68 68 100% 30.11 0.0
30 23:35 SE 5 10.00 Fair CLR 68 68 100% 30.11 0.0
30 23:15 SE 3 10.00 Fair CLR 68 68 100% 30.12 0.0
30 22:55 E 6 10.00 Fair CLR 68 68 100% 30.12 0.0
30 22:35 SE 5 10.00 Fair CLR 68 68 100% 30.11 0.0
30 22:15 E 3 10.00 Fair CLR 68 68 100% 30.11 0.0
30 21:55 SE 5 10.00 Fair CLR 69.8 68 94% 30.11 0.0
30 21:35 E 5 10.00 Fair CLR 69.8 69.8 100% 30.11 0.0
30 20:55 Calm 10.00 Fair CLR 71.6 69.8 94% 30.1 0.0
30 20:35 NE 3 10.00 Fair CLR 71.6 69.8 94% 30.1 0.0
30 19:55 Calm 10.00 Fair CLR 75.2 71.6 89% 75 30.1 0.0
30 19:35 Calm 10.00 Fair CLR 77 69.8 79% 79 30.1 0.0
30 19:15 SW 3 10.00 Fair CLR 77 69.8 79% 79 30.09 0.0
30 18:55 Calm 10.00 Fair CLR 78.8 69.8 74% 81 30.09 0.0
30 18:35 Calm 10.00 Fair CLR 78.8 69.8 74% 81 30.08 0.0
30 18:15 S 3 10.00 Fair CLR 78.8 69.8 74% 81 30.08 0.0
30 17:55 S 3 10.00 Fair CLR 78.8 69.8 74% 81 30.08 0.0
30 17:35 S 3 10.00 Fair CLR 78.8 69.8 74% 81 30.09 0.0
30 17:15 Calm 10.00 Fair CLR 78.8 69.8 74% 81 30.09 0.0
30 16:55 S 6 10.00 Partly Cloudy SCT065 SCT110 77 68 74% 79 30.09 0.0
30 16:35 S 3 10.00 Partly Cloudy SCT065 SCT075 SCT110 78.8 66.2 65% 81 30.1 0.0
30 16:15 S 7 10.00 Partly Cloudy SCT110 78.8 66.2 65% 81 30.1 0.0
30 15:55 S 5 10.00 Fair CLR 80.6 66.2 62% 83 30.12 0.0
30 15:35 S 3 10.00 Fair CLR 78.8 66.2 65% 81 30.13 0.0
30 15:15 Calm 10.00 Fair CLR 80.6 64.4 58% 82 30.15 0.0
30 14:55 Calm 10.00 Fair CLR 80.6 64.4 58% 82 30.15 0.0
30 14:15 W 5 10.00 Fair CLR 80.6 64.4 58% 82 30.17 0.0
30 13:55 SW 3 10.00 Fair CLR 80.6 68 66% 83 30.18 0.0
30 13:35 Calm 10.00 Partly Cloudy SCT120 80.6 68 66% 83 30.19 0.0
30 13:15 NW 6 10.00 Mostly Cloudy BKN110 80.6 68 66% 83 30.19 0.0
30 12:55 W 5 10.00 Mostly Cloudy BKN110 78.8 68 70% 81 30.2 0.0
30 12:35 W 5 10.00 Mostly Cloudy BKN120 80.6 68 66% 83 30.19 0.0
30 12:15 SW 9 10.00 Mostly Cloudy BKN120 78.8 68 70% 81 30.18 0.0
30 11:55 SW 9 10.00 Fair CLR 78.8 68 70% 81 30.18 0.0
30 11:35 SW 9 10.00 Fair CLR 78.8 68 70% 81 30.16 0.0
30 11:15 S 7 10.00 Fair CLR 78.8 68 70% 81 30.16 0.0
30 10:55 SW 8 10.00 Fair CLR 78.8 68 70% 81 30.15 0.0
30 10:35 SW 6 10.00 Fair CLR 77 68 74% 79 30.14 0.0
30 10:15 SW 7 10.00 Fair CLR 77 68 74% 79 30.14 0.0
30 09:55 S 5 10.00 Fair CLR 73.4 68 83% 30.13 0.0
30 09:35 S 3 10.00 Fair CLR 71.6 66.2 83% 30.13 0.0
30 09:15 S 3 10.00 Fair CLR 69.8 66.2 88% 30.14 0.0
30 08:55 S 3 10.00 Fair CLR 69.8 64.4 83% 30.14 0.0
30 08:35 SE 3 10.00 Fair CLR 68 64.4 88% 30.14 0.0
30 08:15 Calm 10.00 Fair CLR 64.4 64.4 100% 30.15 0.0
30 07:55 E 3 7.00 Partly Cloudy SCT110 62.6 62.6 100% 30.15 0.0
30 07:15 E 3 10.00 Fair CLR 62.6 62.6 100% 30.14 0.0
30 06:55 Calm 7.00 Fair CLR 62.6 62.6 100% 30.13 0.0
30 06:35 SE 3 10.00 Fair CLR 62.6 62.6 100% 30.13 0.0
30 06:15 Calm 10.00 Fair CLR 62.6 62.6 100% 30.13 0.0
30 05:55 SE 5 10.00 Fair CLR 62.6 62.6 100% 30.12 0.0
30 05:35 SE 3 10.00 Fair CLR 62.6 62.6 100% 30.13 0.0
30 05:15 SE 3 10.00 Fair CLR 64.4 62.6 94% 30.13 0.0
30 04:55 SE 5 10.00 Fair CLR 64.4 62.6 94% 30.13 0.0
30 04:35 SE 5 10.00 Partly Cloudy SCT120 64.4 62.6 94% 30.13 0.0
30 04:15 SE 3 10.00 Mostly Cloudy BKN120 64.4 62.6 94% 30.13 0.0
30 03:55 SE 5 10.00 Mostly Cloudy BKN120 64.4 62.6 94% 30.13 0.0
30 03:35 SE 5 10.00 Partly Cloudy SCT120 64.4 62.6 94% 30.14 0.0
30 02:55 SE 5 10.00 Fair CLR 64.4 62.6 94% 30.14 0.0
30 02:35 SE 5 7.00 Fair CLR 64.4 62.6 94% 30.15 0.0
30 02:15 SE 3 10.00 Fair CLR 62.6 62.6 100% 30.15 0.0
30 01:55 SE 3 10.00 Fair CLR 62.6 62.6 100% 30.15 0.0
30 01:35 Calm 10.00 Fair CLR 62.6 62.6 100% 30.15 0.0
30 01:15 Calm 10.00 Fair CLR 62.6 62.6 100% 30.15 0.0
30 00:55 Calm 10.00 Fair CLR 62.6 62.6 100% 30.15 0.0
30 00:35 Calm 10.00 Fair CLR 62.6 62.6 100% 30.15 0.0
30 00:15 E 3 7.00 Fair CLR 62.6 62.6 100% 30.14 0.0
29 23:55 E 3 7.00 Fair CLR 62.6 62.6 100% 30.14 0.0
29 23:35 Calm 10.00 Fair CLR 62.6 62.6 100% 30.14 0.0
29 23:15 SE 5 10.00 Fair CLR 62.6 62.6 100% 30.14 0.0
29 22:55 Calm 10.00 Fair CLR 64.4 64.4 100% 30.15 0.0
29 22:35 Calm 10.00 Fair CLR 64.4 64.4 100% 30.15 0.0
29 22:15 E 3 10.00 Fair CLR 64.4 64.4 100% 30.14 0.0
29 21:55 E 5 10.00 Fair CLR 66.2 64.4 94% 30.14 0.0
29 21:35 Calm 10.00 Fair CLR 66.2 64.4 94% 30.14 0.0
29 21:15 Calm 10.00 Fair CLR 68 66.2 94% 30.13 0.0
29 20:35 Calm 10.00 Fair CLR 71.6 66.2 83% 30.13 0.0
29 20:15 Calm 10.00 Fair CLR 71.6 66.2 83% 30.13 0.0
29 19:55 W 5 10.00 Fair CLR 73.4 66.2 78% 30.13 0.0
29 19:35 SW 3 10.00 Fair CLR 75.2 68 78% 76 30.14 0.0
29 19:15 SW 3 10.00 Fair CLR 75.2 66.2 74% 77 30.14 0.0
29 18:55 Calm 10.00 Fair CLR 77 68 74% 79 30.14 0.0
29 18:35 SW 3 10.00 Fair CLR 75.2 66.2 74% 77 30.14 0.0
29 18:15 SW 3 10.00 Fair CLR 77 68 74% 79 30.14 0.0
29 17:55 SW 3 10.00 Fair CLR 77 66.2 69% 79 30.14 0.0
29 17:35 SW 3 10.00 Fair CLR 78.8 64.4 61% 81 30.14 0.0
29 17:15 Calm 10.00 Partly Cloudy SCT060 78.8 64.4 61% 81 30.14 0.0
29 16:55 S 3 10.00 Partly Cloudy SCT060 78.8 64.4 61% 81 30.15 0.0
29 16:35 SW 5 10.00 Partly Cloudy SCT046 SCT060 78.8 64.4 61% 81 30.16 0.0
29 16:15 SW 5 10.00 Partly Cloudy SCT046 80.6 62.6 54% 82 30.16 0.0
29 15:55 SE 3 10.00 Mostly Cloudy BKN046 78.8 62.6 58% 80 30.17 0.0
29 15:35 Calm 10.00 Partly Cloudy SCT046 SCT050 78.8 62.6 58% 80 30.17 0.0
29 15:15 Calm 10.00 Fair CLR 78.8 62.6 58% 80 30.18 0.0
29 14:55 S 6 10.00 Fair CLR 80.6 62.6 54% 82 30.19 0.0
29 14:35 S 5 10.00 Partly Cloudy SCT044 80.6 64.4 58% 82 30.2 0.0
29 14:15 Calm 10.00 Partly Cloudy SCT041 SCT048 78.8 62.6 58% 80 30.2 0.0
29 13:55 Calm 10.00 Partly Cloudy SCT038 SCT046 78.8 62.6 58% 80 30.21 0.0
29 12:35 Calm 10.00 Fair CLR 77 64.4 65% 79 30.23 0.0
29 12:15 Calm 10.00 Fair CLR 77 64.4 65% 79 30.23 0.0
29 11:55 SW 5 10.00 Fair CLR 75.2 64.4 69% 77 30.23 0.0
29 11:35 SE 3 10.00 Partly Cloudy SCT049 75.2 64.4 69% 77 30.23 0.0
29 11:15 Calm 10.00 Fair CLR 73.4 64.4 74% 30.24 0.0
29 10:55 SE 5 10.00 Partly Cloudy SCT050 73.4 64.4 74% 30.23 0.0
29 10:35 SE 5 10.00 Mostly Cloudy BKN050 71.6 64.4 78% 30.23 0.0
29 10:15 SE 7 10.00 Fair CLR 71.6 62.6 73% 30.22 0.0
29 09:55 SE 7 10.00 Fair CLR 69.8 62.6 78% 30.22 0.0
29 09:35 SE 7 10.00 Fair CLR 68 62.6 83% 30.22 0.0
29 09:15 E 6 10.00 Partly Cloudy SCT049 64.4 60.8 88% 30.22 0.0
29 08:55 E 5 10.00 Mostly Cloudy BKN049 64.4 60.8 88% 30.23 0.0
29 08:35 Calm 10.00 Partly Cloudy SCT049 60.8 59 94% 30.22 0.0
29 08:15 E 3 10.00 Partly Cloudy SCT049 60.8 59 94% 30.22 0.0
29 07:55 E 3 10.00 Partly Cloudy SCT049 59 57.2 94% 30.21 0.0
29 07:35 E 5 10.00 Mostly Cloudy BKN047 59 55.4 88% 30.2 0.0
29 07:15 E 6 10.00 Partly Cloudy SCT049 57.2 55.4 94% 30.19 0.0
29 06:55 E 6 10.00 Partly Cloudy SCT049 57.2 55.4 94% 30.19 0.0
29 06:35 E 6 10.00 Fair CLR 57.2 55.4 94% 30.19 0.0
29 06:15 E 6 10.00 Partly Cloudy SCT048 57.2 55.4 94% 30.18 0.0
29 05:55 E 6 10.00 Fair CLR 59 55.4 88% 30.19 0.0
29 05:35 E 6 10.00 Partly Cloudy SCT050 59 55.4 88% 30.19 0.0
29 05:15 E 6 10.00 Partly Cloudy SCT050 59 55.4 88% 30.2 0.0
29 04:55 E 5 10.00 Partly Cloudy SCT050 59 55.4 88% 30.2 0.0
29 04:35 E 6 10.00 Partly Cloudy SCT050 59 55.4 88% 30.2 0.0
29 04:15 E 6 10.00 Fair CLR 59 55.4 88% 30.2 0.0
29 03:55 E 5 10.00 Fair CLR 59 57.2 94% 30.2 0.0
29 03:35 NE 3 10.00 Fair CLR 59 57.2 94% 30.2 0.0
29 03:15 E 5 10.00 Partly Cloudy SCT050 59 57.2 94% 30.2 0.0
29 02:55 NE 5 10.00 Partly Cloudy SCT047 SCT050 59 59 100% 30.2 0.0
29 02:35 NE 5 10.00 Mostly Cloudy SCT047 BKN050 60.8 59 94% 30.2 0.0
29 02:15 NE 3 10.00 Mostly Cloudy BKN050 60.8 59 94% 30.19 0.0
29 01:55 E 5 10.00 Mostly Cloudy BKN050 60.8 59 94% 30.2 0.0
29 01:35 E 6 10.00 Partly Cloudy SCT050 60.8 59 94% 30.2 0.0
29 01:15 NE 6 10.00 Fair CLR 60.8 59 94% 30.2 0.0
29 00:55 NE 5 10.00 Fair CLR 60.8 59 94% 30.2 0.0
29 00:35 NE 5 10.00 Fair CLR 60.8 59 94% 30.2 0.0
29 00:15 NE 6 10.00 Partly Cloudy SCT050 62.6 59 88% 30.19 0.0
28 23:55 NE 5 10.00 Mostly Cloudy BKN050 62.6 60.8 94% 30.19 0.0
28 23:35 NE 5 10.00 Partly Cloudy SCT050 62.6 60.8 94% 30.18 0.0
28 23:15 NE 3 10.00 Fair CLR 62.6 59 88% 30.18 0.0
28 22:55 N 5 10.00 Fair CLR 64.4 60.8 88% 30.19 0.0
28 22:35 N 3 10.00 Fair CLR 64.4 60.8 88% 30.19 0.0
28 22:15 NE 3 10.00 Fair CLR 64.4 60.8 88% 30.18 0.0
28 21:55 NE 5 10.00 Fair CLR 64.4 60.8 88% 30.17 0.0
28 21:35 NE 3 10.00 Fair CLR 64.4 60.8 88% 30.16 0.0
28 21:15 N 3 10.00 Fair CLR 66.2 60.8 83% 30.16 0.0
28 20:55 N 3 10.00 Fair CLR 68 60.8 78% 30.15 0.0
Date Time (edt) Wind (mph) Vis. (mi.) Weather Sky Cond. Air Dwpt Max. Min. Relative Humidity Wind Chill (°F) Heat Index (°F) altimeter (in) sea level (mb) 1 hr 3 hr 6 hr
6 hour
Temperature (ºF) Pressure Precipitation (in)